Terminal Aerodrome Forecast
Issued by NWS Wilmington, NC

Home | Current Version | Previous Version | Text Only | Print | Product List | Glossary On
Versions: 1 2 3 4 5 6 7 8 9 10 11 12 13 14 15 16
000
FTUS42 KILM 311700
TAFILM
TAF
KILM 311724Z 3118/0118 09010G20KT P6SM SCT030 SCT100 BKN250
     FM010600 07004KT P6SM VCSH SCT020 BKN100
     FM011200 13006KT 6SM SHRA BKN025 BKN050=

USA.gov is the U.S. government's official web portal to all federal, state and local government web resources and services.